sensor_id;sensor_type;location;lat;lon;timestamp;P1;durP1;ratioP1;P2;durP2;ratioP2
19929;SDS011;10127;47.780;9.606;2023-05-21T00:00:48;14.48;;;11.32;;
19929;SDS011;10127;47.780;9.606;2023-05-21T00:03:15;17.63;;;12.10;;
19929;SDS011;10127;47.780;9.606;2023-05-21T00:05:41;14.93;;;12.07;;
19929;SDS011;10127;47.780;9.606;2023-05-21T00:08:09;16.38;;;12.70;;
19929;SDS011;10127;47.780;9.606;2023-05-21T00:10:35;17.02;;;12.95;;
19929;SDS011;10127;47.780;9.606;2023-05-21T00:13:00;17.95;;;13.40;;
19929;SDS011;10127;47.780;9.606;2023-05-21T00:15:26;20.25;;;13.77;;
19929;SDS011;10127;47.780;9.606;2023-05-21T00:17:51;18.88;;;13.75;;
19929;SDS011;10127;47.780;9.606;2023-05-21T00:20:17;18.30;;;13.02;;
19929;SDS011;10127;47.780;9.606;2023-05-21T00:22:43;15.60;;;12.57;;
19929;SDS011;10127;47.780;9.606;2023-05-21T00:25:09;19.05;;;13.45;;
19929;SDS011;10127;47.780;9.606;2023-05-21T00:27:35;16.65;;;13.02;;
19929;SDS011;10127;47.780;9.606;2023-05-21T00:30:01;16.52;;;12.55;;
19929;SDS011;10127;47.780;9.606;2023-05-21T00:32:28;14.85;;;12.48;;
19929;SDS011;10127;47.780;9.606;2023-05-21T00:34:53;16.35;;;13.07;;
19929;SDS011;10127;47.780;9.606;2023-05-21T00:37:20;18.75;;;13.30;;
19929;SDS011;10127;47.780;9.606;2023-05-21T00:39:45;18.48;;;13.73;;
19929;SDS011;10127;47.780;9.606;2023-05-21T00:42:11;18.10;;;13.82;;
19929;SDS011;10127;47.780;9.606;2023-05-21T00:44:37;16.60;;;12.63;;
19929;SDS011;10127;47.780;9.606;2023-05-21T00:47:03;18.30;;;12.85;;
19929;SDS011;10127;47.780;9.606;2023-05-21T00:49:30;19.55;;;12.93;;
19929;SDS011;10127;47.780;9.606;2023-05-21T00:51:56;19.00;;;12.80;;
19929;SDS011;10127;47.780;9.606;2023-05-21T00:54:25;16.52;;;12.48;;
19929;SDS011;10127;47.780;9.606;2023-05-21T00:56:51;14.90;;;11.95;;
19929;SDS011;10127;47.780;9.606;2023-05-21T00:59:17;14.93;;;12.40;;
19929;SDS011;10127;47.780;9.606;2023-05-21T01:01:43;15.40;;;12.02;;
19929;SDS011;10127;47.780;9.606;2023-05-21T01:04:09;14.45;;;12.10;;
19929;SDS011;10127;47.780;9.606;2023-05-21T01:06:35;16.42;;;12.60;;
19929;SDS011;10127;47.780;9.606;2023-05-21T01:09:01;18.05;;;12.52;;
19929;SDS011;10127;47.780;9.606;2023-05-21T01:11:47;17.15;;;12.90;;
19929;SDS011;10127;47.780;9.606;2023-05-21T01:14:15;17.63;;;12.95;;
19929;SDS011;10127;47.780;9.606;2023-05-21T01:16:42;15.73;;;12.73;;
19929;SDS011;10127;47.780;9.606;2023-05-21T01:19:19;17.25;;;12.30;;
19929;SDS011;10127;47.780;9.606;2023-05-21T01:21:50;15.05;;;12.07;;
19929;SDS011;10127;47.780;9.606;2023-05-21T01:24:20;14.30;;;11.73;;
19929;SDS011;10127;47.780;9.606;2023-05-21T01:26:46;16.60;;;12.18;;
19929;SDS011;10127;47.780;9.606;2023-05-21T01:29:11;14.45;;;10.95;;
19929;SDS011;10127;47.780;9.606;2023-05-21T01:31:44;14.65;;;10.70;;
19929;SDS011;10127;47.780;9.606;2023-05-21T01:34:20;15.25;;;10.63;;
19929;SDS011;10127;47.780;9.606;2023-05-21T01:36:56;15.52;;;10.43;;
19929;SDS011;10127;47.780;9.606;2023-05-21T01:39:32;13.70;;;10.73;;
19929;SDS011;10127;47.780;9.606;2023-05-21T01:42:01;12.98;;;10.88;;
19929;SDS011;10127;47.780;9.606;2023-05-21T01:44:29;15.60;;;11.63;;
19929;SDS011;10127;47.780;9.606;2023-05-21T01:46:57;12.55;;;10.27;;
19929;SDS011;10127;47.780;9.606;2023-05-21T01:49:24;16.52;;;11.00;;
19929;SDS011;10127;47.780;9.606;2023-05-21T01:51:50;16.92;;;11.52;;
19929;SDS011;10127;47.780;9.606;2023-05-21T01:54:16;13.70;;;10.57;;
19929;SDS011;10127;47.780;9.606;2023-05-21T01:56:42;15.65;;;10.68;;
19929;SDS011;10127;47.780;9.606;2023-05-21T01:59:07;12.63;;;10.30;;
19929;SDS011;10127;47.780;9.606;2023-05-21T02:01:33;14.90;;;10.13;;
19929;SDS011;10127;47.780;9.606;2023-05-21T02:03:58;14.80;;;10.27;;
19929;SDS011;10127;47.780;9.606;2023-05-21T02:06:24;12.20;;;9.40;;
19929;SDS011;10127;47.780;9.606;2023-05-21T02:08:50;12.07;;;9.10;;
19929;SDS011;10127;47.780;9.606;2023-05-21T02:11:15;11.45;;;9.40;;
19929;SDS011;10127;47.780;9.606;2023-05-21T02:13:41;13.93;;;10.00;;
19929;SDS011;10127;47.780;9.606;2023-05-21T02:16:07;14.57;;;10.27;;
19929;SDS011;10127;47.780;9.606;2023-05-21T02:18:38;13.40;;;9.63;;
19929;SDS011;10127;47.780;9.606;2023-05-21T02:21:06;16.70;;;9.73;;
19929;SDS011;10127;47.780;9.606;2023-05-21T02:23:31;14.50;;;9.73;;
19929;SDS011;10127;47.780;9.606;2023-05-21T02:25:57;12.00;;;9.27;;
19929;SDS011;10127;47.780;9.606;2023-05-21T02:28:22;18.55;;;9.52;;
19929;SDS011;10127;47.780;9.606;2023-05-21T02:30:48;10.88;;;9.13;;
19929;SDS011;10127;47.780;9.606;2023-05-21T02:33:15;12.25;;;9.57;;
19929;SDS011;10127;47.780;9.606;2023-05-21T02:35:40;13.70;;;9.88;;
19929;SDS011;10127;47.780;9.606;2023-05-21T02:38:07;11.57;;;9.68;;
19929;SDS011;10127;47.780;9.606;2023-05-21T02:40:34;11.88;;;9.75;;
19929;SDS011;10127;47.780;9.606;2023-05-21T02:42:59;10.43;;;9.32;;
19929;SDS011;10127;47.780;9.606;2023-05-21T02:45:25;14.10;;;9.77;;
19929;SDS011;10127;47.780;9.606;2023-05-21T02:47:52;11.25;;;9.23;;
19929;SDS011;10127;47.780;9.606;2023-05-21T03:10:51;11.55;;;9.38;;
19929;SDS011;10127;47.780;9.606;2023-05-21T03:13:16;12.60;;;9.20;;
19929;SDS011;10127;47.780;9.606;2023-05-21T03:15:42;13.38;;;8.75;;
19929;SDS011;10127;47.780;9.606;2023-05-21T03:18:08;10.30;;;8.27;;
19929;SDS011;10127;47.780;9.606;2023-05-21T03:20:35;12.35;;;9.00;;
19929;SDS011;10127;47.780;9.606;2023-05-21T03:23:07;9.50;;;7.82;;
19929;SDS011;10127;47.780;9.606;2023-05-21T03:25:33;10.40;;;8.93;;
19929;SDS011;10127;47.780;9.606;2023-05-21T03:28:00;12.75;;;8.95;;
19929;SDS011;10127;47.780;9.606;2023-05-21T03:30:26;11.93;;;9.02;;
19929;SDS011;10127;47.780;9.606;2023-05-21T03:32:51;13.60;;;9.77;;
19929;SDS011;10127;47.780;9.606;2023-05-21T03:35:17;13.25;;;9.85;;
19929;SDS011;10127;47.780;9.606;2023-05-21T03:37:43;13.10;;;9.65;;
19929;SDS011;10127;47.780;9.606;2023-05-21T03:40:08;16.33;;;9.27;;
19929;SDS011;10127;47.780;9.606;2023-05-21T03:42:34;11.43;;;9.07;;
19929;SDS011;10127;47.780;9.606;2023-05-21T03:45:00;13.15;;;9.82;;
19929;SDS011;10127;47.780;9.606;2023-05-21T03:47:27;14.88;;;9.68;;
19929;SDS011;10127;47.780;9.606;2023-05-21T03:49:52;11.48;;;9.10;;
19929;SDS011;10127;47.780;9.606;2023-05-21T03:52:18;10.55;;;8.57;;
19929;SDS011;10127;47.780;9.606;2023-05-21T03:54:44;12.82;;;9.73;;
19929;SDS011;10127;47.780;9.606;2023-05-21T03:57:09;13.23;;;10.07;;
19929;SDS011;10127;47.780;9.606;2023-05-21T03:59:35;13.68;;;10.18;;
19929;SDS011;10127;47.780;9.606;2023-05-21T04:02:00;14.45;;;9.77;;
19929;SDS011;10127;47.780;9.606;2023-05-21T04:04:26;13.85;;;9.27;;
19929;SDS011;10127;47.780;9.606;2023-05-21T04:06:53;13.32;;;9.45;;
19929;SDS011;10127;47.780;9.606;2023-05-21T04:09:19;12.40;;;9.32;;
19929;SDS011;10127;47.780;9.606;2023-05-21T04:11:45;13.65;;;9.40;;
19929;SDS011;10127;47.780;9.606;2023-05-21T04:14:11;12.45;;;9.32;;
19929;SDS011;10127;47.780;9.606;2023-05-21T04:16:37;15.02;;;10.20;;
19929;SDS011;10127;47.780;9.606;2023-05-21T04:19:03;14.00;;;9.60;;
19929;SDS011;10127;47.780;9.606;2023-05-21T04:21:29;12.15;;;9.60;;
19929;SDS011;10127;47.780;9.606;2023-05-21T04:23:56;12.82;;;10.55;;
19929;SDS011;10127;47.780;9.606;2023-05-21T04:26:22;12.25;;;9.57;;
19929;SDS011;10127;47.780;9.606;2023-05-21T04:28:49;12.63;;;9.90;;
19929;SDS011;10127;47.780;9.606;2023-05-21T04:31:15;14.65;;;9.95;;
19929;SDS011;10127;47.780;9.606;2023-05-21T04:33:40;17.13;;;10.30;;
19929;SDS011;10127;47.780;9.606;2023-05-21T04:36:09;12.48;;;10.27;;
19929;SDS011;10127;47.780;9.606;2023-05-21T04:38:35;15.48;;;10.20;;
19929;SDS011;10127;47.780;9.606;2023-05-21T04:41:01;12.70;;;9.90;;
19929;SDS011;10127;47.780;9.606;2023-05-21T04:43:27;13.32;;;10.30;;
19929;SDS011;10127;47.780;9.606;2023-05-21T04:45:54;13.43;;;10.73;;
19929;SDS011;10127;47.780;9.606;2023-05-21T04:48:23;14.30;;;11.05;;
19929;SDS011;10127;47.780;9.606;2023-05-21T04:50:50;16.55;;;10.70;;
19929;SDS011;10127;47.780;9.606;2023-05-21T04:53:17;13.77;;;9.82;;
19929;SDS011;10127;47.780;9.606;2023-05-21T04:55:43;15.98;;;11.07;;
19929;SDS011;10127;47.780;9.606;2023-05-21T04:58:08;16.27;;;11.35;;
19929;SDS011;10127;47.780;9.606;2023-05-21T05:00:37;16.77;;;10.40;;
19929;SDS011;10127;47.780;9.606;2023-05-21T05:03:04;12.45;;;9.50;;
19929;SDS011;10127;47.780;9.606;2023-05-21T05:05:37;14.45;;;10.65;;
19929;SDS011;10127;47.780;9.606;2023-05-21T05:08:03;13.73;;;9.45;;
19929;SDS011;10127;47.780;9.606;2023-05-21T05:10:29;11.95;;;9.90;;
19929;SDS011;10127;47.780;9.606;2023-05-21T05:12:54;11.32;;;9.65;;
19929;SDS011;10127;47.780;9.606;2023-05-21T05:15:20;11.65;;;9.57;;
19929;SDS011;10127;47.780;9.606;2023-05-21T05:17:45;13.85;;;9.50;;
19929;SDS011;10127;47.780;9.606;2023-05-21T05:20:14;11.68;;;8.80;;
19929;SDS011;10127;47.780;9.606;2023-05-21T05:22:40;14.02;;;9.10;;
19929;SDS011;10127;47.780;9.606;2023-05-21T05:25:05;10.88;;;8.93;;
19929;SDS011;10127;47.780;9.606;2023-05-21T05:27:31;10.30;;;8.70;;
19929;SDS011;10127;47.780;9.606;2023-05-21T05:29:57;12.30;;;10.05;;
19929;SDS011;10127;47.780;9.606;2023-05-21T05:32:23;15.68;;;10.63;;
19929;SDS011;10127;47.780;9.606;2023-05-21T05:34:48;13.63;;;10.40;;
19929;SDS011;10127;47.780;9.606;2023-05-21T05:37:14;18.58;;;11.20;;
19929;SDS011;10127;47.780;9.606;2023-05-21T05:39:40;15.23;;;10.90;;
19929;SDS011;10127;47.780;9.606;2023-05-21T05:42:05;16.65;;;10.35;;
19929;SDS011;10127;47.780;9.606;2023-05-21T05:44:37;15.48;;;11.35;;
19929;SDS011;10127;47.780;9.606;2023-05-21T05:47:02;15.27;;;10.63;;
19929;SDS011;10127;47.780;9.606;2023-05-21T05:49:33;13.80;;;10.40;;
19929;SDS011;10127;47.780;9.606;2023-05-21T05:51:58;16.67;;;11.45;;
19929;SDS011;10127;47.780;9.606;2023-05-21T05:54:31;16.83;;;12.13;;
19929;SDS011;10127;47.780;9.606;2023-05-21T05:56:56;16.38;;;11.98;;
19929;SDS011;10127;47.780;9.606;2023-05-21T05:59:22;17.73;;;12.77;;
19929;SDS011;10127;47.780;9.606;2023-05-21T06:01:47;18.60;;;13.85;;
19929;SDS011;10127;47.780;9.606;2023-05-21T06:04:13;16.23;;;12.80;;
19929;SDS011;10127;47.780;9.606;2023-05-21T06:06:38;16.70;;;12.85;;
19929;SDS011;10127;47.780;9.606;2023-05-21T06:09:04;17.63;;;12.57;;
19929;SDS011;10127;47.780;9.606;2023-05-21T06:11:30;17.52;;;12.45;;
19929;SDS011;10127;47.780;9.606;2023-05-21T06:13:55;18.10;;;13.73;;
19929;SDS011;10127;47.780;9.606;2023-05-21T06:16:24;17.48;;;13.52;;
19929;SDS011;10127;47.780;9.606;2023-05-21T06:18:50;16.75;;;13.65;;
19929;SDS011;10127;47.780;9.606;2023-05-21T06:21:15;18.48;;;14.07;;
19929;SDS011;10127;47.780;9.606;2023-05-21T06:23:41;22.08;;;15.20;;
19929;SDS011;10127;47.780;9.606;2023-05-21T06:26:06;18.52;;;14.13;;
19929;SDS011;10127;47.780;9.606;2023-05-21T06:28:32;17.33;;;12.93;;
19929;SDS011;10127;47.780;9.606;2023-05-21T06:30:57;21.08;;;14.68;;
19929;SDS011;10127;47.780;9.606;2023-05-21T06:33:30;19.23;;;13.65;;
19929;SDS011;10127;47.780;9.606;2023-05-21T06:35:57;17.05;;;12.63;;
19929;SDS011;10127;47.780;9.606;2023-05-21T06:38:22;18.00;;;13.43;;
19929;SDS011;10127;47.780;9.606;2023-05-21T06:40:48;17.45;;;13.18;;
19929;SDS011;10127;47.780;9.606;2023-05-21T06:43:14;15.18;;;12.80;;
19929;SDS011;10127;47.780;9.606;2023-05-21T06:45:39;14.95;;;12.57;;
19929;SDS011;10127;47.780;9.606;2023-05-21T06:48:05;18.73;;;12.40;;
19929;SDS011;10127;47.780;9.606;2023-05-21T06:50:31;18.10;;;12.95;;
19929;SDS011;10127;47.780;9.606;2023-05-21T06:52:56;19.50;;;13.07;;
19929;SDS011;10127;47.780;9.606;2023-05-21T06:55:22;16.20;;;12.88;;
19929;SDS011;10127;47.780;9.606;2023-05-21T06:57:47;18.83;;;13.60;;
19929;SDS011;10127;47.780;9.606;2023-05-21T07:00:13;15.25;;;12.55;;
19929;SDS011;10127;47.780;9.606;2023-05-21T07:02:39;16.10;;;12.48;;
19929;SDS011;10127;47.780;9.606;2023-05-21T07:05:04;16.52;;;12.52;;
19929;SDS011;10127;47.780;9.606;2023-05-21T07:07:30;17.83;;;12.45;;
19929;SDS011;10127;47.780;9.606;2023-05-21T07:09:56;16.55;;;12.85;;
19929;SDS011;10127;47.780;9.606;2023-05-21T07:12:21;17.98;;;11.73;;
19929;SDS011;10127;47.780;9.606;2023-05-21T07:14:47;15.15;;;12.35;;
19929;SDS011;10127;47.780;9.606;2023-05-21T07:17:12;16.77;;;11.88;;
19929;SDS011;10127;47.780;9.606;2023-05-21T07:19:38;15.35;;;12.27;;
19929;SDS011;10127;47.780;9.606;2023-05-21T07:22:04;15.60;;;12.75;;
19929;SDS011;10127;47.780;9.606;2023-05-21T07:24:30;15.65;;;12.13;;
19929;SDS011;10127;47.780;9.606;2023-05-21T07:26:56;16.17;;;12.30;;
19929;SDS011;10127;47.780;9.606;2023-05-21T07:29:21;19.60;;;12.50;;
19929;SDS011;10127;47.780;9.606;2023-05-21T07:31:47;16.90;;;12.10;;
19929;SDS011;10127;47.780;9.606;2023-05-21T07:34:12;14.02;;;11.95;;
19929;SDS011;10127;47.780;9.606;2023-05-21T07:36:38;13.40;;;11.05;;
19929;SDS011;10127;47.780;9.606;2023-05-21T07:39:03;13.68;;;10.48;;
19929;SDS011;10127;47.780;9.606;2023-05-21T07:41:29;14.57;;;10.75;;
19929;SDS011;10127;47.780;9.606;2023-05-21T07:43:55;12.07;;;9.95;;
19929;SDS011;10127;47.780;9.606;2023-05-21T07:46:20;12.63;;;9.88;;
19929;SDS011;10127;47.780;9.606;2023-05-21T07:48:46;13.10;;;10.30;;
19929;SDS011;10127;47.780;9.606;2023-05-21T07:51:12;17.08;;;10.50;;
19929;SDS011;10127;47.780;9.606;2023-05-21T07:53:38;10.77;;;8.63;;
19929;SDS011;10127;47.780;9.606;2023-05-21T07:56:03;10.57;;;8.38;;
19929;SDS011;10127;47.780;9.606;2023-05-21T07:58:29;9.48;;;8.27;;
19929;SDS011;10127;47.780;9.606;2023-05-21T08:00:55;10.02;;;7.28;;
19929;SDS011;10127;47.780;9.606;2023-05-21T08:03:21;11.48;;;8.77;;
19929;SDS011;10127;47.780;9.606;2023-05-21T08:05:47;10.95;;;8.57;;
19929;SDS011;10127;47.780;9.606;2023-05-21T08:08:22;11.60;;;8.98;;
19929;SDS011;10127;47.780;9.606;2023-05-21T08:10:48;11.48;;;8.45;;
19929;SDS011;10127;47.780;9.606;2023-05-21T08:13:14;13.02;;;10.32;;
19929;SDS011;10127;47.780;9.606;2023-05-21T08:15:40;14.52;;;9.57;;
19929;SDS011;10127;47.780;9.606;2023-05-21T08:18:06;13.82;;;10.00;;
19929;SDS011;10127;47.780;9.606;2023-05-21T08:20:32;14.05;;;9.38;;
19929;SDS011;10127;47.780;9.606;2023-05-21T08:22:58;13.35;;;9.45;;
19929;SDS011;10127;47.780;9.606;2023-05-21T08:25:25;13.63;;;9.32;;
19929;SDS011;10127;47.780;9.606;2023-05-21T08:27:51;13.27;;;8.98;;
19929;SDS011;10127;47.780;9.606;2023-05-21T08:30:16;10.98;;;8.45;;
19929;SDS011;10127;47.780;9.606;2023-05-21T08:32:42;12.07;;;7.72;;
19929;SDS011;10127;47.780;9.606;2023-05-21T08:35:08;12.25;;;8.52;;
19929;SDS011;10127;47.780;9.606;2023-05-21T08:37:33;10.80;;;8.70;;
19929;SDS011;10127;47.780;9.606;2023-05-21T08:39:59;10.88;;;7.35;;
19929;SDS011;10127;47.780;9.606;2023-05-21T08:45:11;8.27;;;6.60;;
19929;SDS011;10127;47.780;9.606;2023-05-21T08:47:39;10.32;;;7.72;;
19929;SDS011;10127;47.780;9.606;2023-05-21T08:50:09;9.77;;;6.90;;
19929;SDS011;10127;47.780;9.606;2023-05-21T08:52:36;12.50;;;8.18;;
19929;SDS011;10127;47.780;9.606;2023-05-21T08:55:05;9.20;;;7.30;;
19929;SDS011;10127;47.780;9.606;2023-05-21T08:57:31;8.75;;;7.15;;
19929;SDS011;10127;47.780;9.606;2023-05-21T08:59:58;8.43;;;6.78;;
19929;SDS011;10127;47.780;9.606;2023-05-21T09:02:23;9.27;;;6.32;;
19929;SDS011;10127;47.780;9.606;2023-05-21T09:04:50;9.25;;;7.35;;
19929;SDS011;10127;47.780;9.606;2023-05-21T09:07:25;8.00;;;6.30;;
19929;SDS011;10127;47.780;9.606;2023-05-21T09:10:03;7.60;;;6.25;;
19929;SDS011;10127;47.780;9.606;2023-05-21T09:12:36;9.80;;;6.28;;
19929;SDS011;10127;47.780;9.606;2023-05-21T09:15:02;8.85;;;5.97;;
19929;SDS011;10127;47.780;9.606;2023-05-21T09:17:28;10.50;;;6.07;;
19929;SDS011;10127;47.780;9.606;2023-05-21T09:20:03;10.00;;;6.15;;
19929;SDS011;10127;47.780;9.606;2023-05-21T09:22:42;13.95;;;6.28;;
19929;SDS011;10127;47.780;9.606;2023-05-21T09:25:19;13.05;;;6.13;;
19929;SDS011;10127;47.780;9.606;2023-05-21T09:27:45;9.90;;;6.00;;
19929;SDS011;10127;47.780;9.606;2023-05-21T09:30:14;8.30;;;5.32;;
19929;SDS011;10127;47.780;9.606;2023-05-21T09:32:41;8.75;;;5.55;;
19929;SDS011;10127;47.780;9.606;2023-05-21T09:35:14;7.63;;;5.00;;
19929;SDS011;10127;47.780;9.606;2023-05-21T09:37:43;7.70;;;4.60;;
19929;SDS011;10127;47.780;9.606;2023-05-21T09:40:12;5.50;;;3.92;;
19929;SDS011;10127;47.780;9.606;2023-05-21T09:42:38;5.40;;;3.88;;
19929;SDS011;10127;47.780;9.606;2023-05-21T09:45:05;5.13;;;4.18;;
19929;SDS011;10127;47.780;9.606;2023-05-21T09:47:32;3.63;;;2.97;;
19929;SDS011;10127;47.780;9.606;2023-05-21T09:49:58;3.15;;;2.72;;
19929;SDS011;10127;47.780;9.606;2023-05-21T09:52:24;3.55;;;2.70;;
19929;SDS011;10127;47.780;9.606;2023-05-21T09:54:51;4.60;;;2.75;;
19929;SDS011;10127;47.780;9.606;2023-05-21T09:57:22;3.42;;;2.63;;
19929;SDS011;10127;47.780;9.606;2023-05-21T09:59:50;4.13;;;2.50;;
19929;SDS011;10127;47.780;9.606;2023-05-21T10:02:19;2.83;;;2.53;;
19929;SDS011;10127;47.780;9.606;2023-05-21T10:04:49;3.35;;;2.50;;
19929;SDS011;10127;47.780;9.606;2023-05-21T10:07:19;5.07;;;3.40;;
19929;SDS011;10127;47.780;9.606;2023-05-21T10:09:49;4.10;;;2.53;;
19929;SDS011;10127;47.780;9.606;2023-05-21T10:12:22;6.57;;;2.40;;
19929;SDS011;10127;47.780;9.606;2023-05-21T10:14:53;3.10;;;2.58;;
19929;SDS011;10127;47.780;9.606;2023-05-21T10:17:25;5.20;;;2.80;;
19929;SDS011;10127;47.780;9.606;2023-05-21T10:19:52;4.25;;;2.22;;
19929;SDS011;10127;47.780;9.606;2023-05-21T10:22:20;3.60;;;2.33;;
19929;SDS011;10127;47.780;9.606;2023-05-21T10:24:50;4.40;;;2.50;;
19929;SDS011;10127;47.780;9.606;2023-05-21T10:27:16;5.13;;;3.20;;
19929;SDS011;10127;47.780;9.606;2023-05-21T10:29:42;3.58;;;2.80;;
19929;SDS011;10127;47.780;9.606;2023-05-21T10:32:09;2.45;;;2.13;;
19929;SDS011;10127;47.780;9.606;2023-05-21T10:34:37;4.00;;;2.65;;
19929;SDS011;10127;47.780;9.606;2023-05-21T10:37:02;5.00;;;2.30;;
19929;SDS011;10127;47.780;9.606;2023-05-21T10:39:31;5.13;;;2.70;;
19929;SDS011;10127;47.780;9.606;2023-05-21T10:44:31;8.00;;;2.83;;
19929;SDS011;10127;47.780;9.606;2023-05-21T10:56:10;3.10;;;2.30;;
19929;SDS011;10127;47.780;9.606;2023-05-21T11:01:30;2.95;;;2.58;;
19929;SDS011;10127;47.780;9.606;2023-05-21T11:03:59;5.15;;;3.28;;
19929;SDS011;10127;47.780;9.606;2023-05-21T11:06:25;6.82;;;3.38;;
19929;SDS011;10127;47.780;9.606;2023-05-21T11:08:51;5.95;;;2.88;;
19929;SDS011;10127;47.780;9.606;2023-05-21T11:14:32;4.47;;;2.58;;
19929;SDS011;10127;47.780;9.606;2023-05-21T11:17:03;3.08;;;2.53;;
19929;SDS011;10127;47.780;9.606;2023-05-21T11:19:41;3.47;;;2.45;;
19929;SDS011;10127;47.780;9.606;2023-05-21T11:22:29;3.00;;;2.70;;
19929;SDS011;10127;47.780;9.606;2023-05-21T11:24:54;5.70;;;3.08;;
19929;SDS011;10127;47.780;9.606;2023-05-21T11:27:33;4.93;;;2.58;;
19929;SDS011;10127;47.780;9.606;2023-05-21T11:32:37;5.15;;;3.80;;
19929;SDS011;10127;47.780;9.606;2023-05-21T11:35:04;7.45;;;3.92;;
19929;SDS011;10127;47.780;9.606;2023-05-21T11:37:30;7.47;;;4.90;;
19929;SDS011;10127;47.780;9.606;2023-05-21T11:39:57;6.53;;;4.45;;
19929;SDS011;10127;47.780;9.606;2023-05-21T11:42:41;10.02;;;5.20;;
19929;SDS011;10127;47.780;9.606;2023-05-21T11:45:08;6.85;;;5.40;;
19929;SDS011;10127;47.780;9.606;2023-05-21T11:47:34;7.47;;;5.00;;
19929;SDS011;10127;47.780;9.606;2023-05-21T11:50:00;6.90;;;5.70;;
19929;SDS011;10127;47.780;9.606;2023-05-21T11:52:30;9.10;;;6.88;;
19929;SDS011;10127;47.780;9.606;2023-05-21T11:54:57;9.27;;;6.43;;
19929;SDS011;10127;47.780;9.606;2023-05-21T11:57:25;8.57;;;7.13;;
19929;SDS011;10127;47.780;9.606;2023-05-21T11:59:54;9.85;;;6.38;;
19929;SDS011;10127;47.780;9.606;2023-05-21T12:02:23;7.85;;;6.05;;
19929;SDS011;10127;47.780;9.606;2023-05-21T12:04:50;10.63;;;6.03;;
19929;SDS011;10127;47.780;9.606;2023-05-21T12:07:16;11.02;;;6.70;;
19929;SDS011;10127;47.780;9.606;2023-05-21T12:09:43;8.82;;;6.10;;
19929;SDS011;10127;47.780;9.606;2023-05-21T12:12:11;9.88;;;6.43;;
19929;SDS011;10127;47.780;9.606;2023-05-21T12:14:38;8.77;;;5.78;;
19929;SDS011;10127;47.780;9.606;2023-05-21T12:17:04;7.95;;;5.82;;
19929;SDS011;10127;47.780;9.606;2023-05-21T12:19:34;9.95;;;5.57;;
19929;SDS011;10127;47.780;9.606;2023-05-21T12:22:04;10.77;;;6.25;;
19929;SDS011;10127;47.780;9.606;2023-05-21T12:24:31;7.90;;;6.07;;
19929;SDS011;10127;47.780;9.606;2023-05-21T12:26:58;6.93;;;5.70;;
19929;SDS011;10127;47.780;9.606;2023-05-21T12:29:26;9.25;;;6.45;;
19929;SDS011;10127;47.780;9.606;2023-05-21T12:31:53;7.97;;;6.15;;
19929;SDS011;10127;47.780;9.606;2023-05-21T12:34:38;9.40;;;6.18;;
19929;SDS011;10127;47.780;9.606;2023-05-21T12:37:11;8.05;;;5.95;;
19929;SDS011;10127;47.780;9.606;2023-05-21T12:39:44;6.53;;;5.75;;
19929;SDS011;10127;47.780;9.606;2023-05-21T12:42:12;11.13;;;6.18;;
19929;SDS011;10127;47.780;9.606;2023-05-21T12:44:38;9.93;;;5.95;;
19929;SDS011;10127;47.780;9.606;2023-05-21T12:47:09;12.00;;;6.53;;
19929;SDS011;10127;47.780;9.606;2023-05-21T12:49:36;7.68;;;5.63;;
19929;SDS011;10127;47.780;9.606;2023-05-21T12:52:04;7.40;;;5.93;;
19929;SDS011;10127;47.780;9.606;2023-05-21T12:54:35;8.63;;;6.80;;
19929;SDS011;10127;47.780;9.606;2023-05-21T12:57:21;9.70;;;5.88;;
19929;SDS011;10127;47.780;9.606;2023-05-21T13:02:21;6.43;;;5.28;;
19929;SDS011;10127;47.780;9.606;2023-05-21T13:04:57;9.70;;;6.22;;
19929;SDS011;10127;47.780;9.606;2023-05-21T13:07:23;6.82;;;5.53;;
19929;SDS011;10127;47.780;9.606;2023-05-21T13:09:50;8.85;;;5.72;;
19929;SDS011;10127;47.780;9.606;2023-05-21T13:12:17;6.35;;;4.70;;
19929;SDS011;10127;47.780;9.606;2023-05-21T13:14:45;8.10;;;5.47;;
19929;SDS011;10127;47.780;9.606;2023-05-21T13:17:10;7.05;;;5.38;;
19929;SDS011;10127;47.780;9.606;2023-05-21T13:19:36;10.52;;;5.05;;
19929;SDS011;10127;47.780;9.606;2023-05-21T13:22:02;7.78;;;5.40;;
19929;SDS011;10127;47.780;9.606;2023-05-21T13:24:28;7.22;;;4.93;;
19929;SDS011;10127;47.780;9.606;2023-05-21T13:26:53;8.65;;;4.95;;
19929;SDS011;10127;47.780;9.606;2023-05-21T13:29:19;8.07;;;4.20;;
19929;SDS011;10127;47.780;9.606;2023-05-21T13:31:44;8.00;;;4.70;;
19929;SDS011;10127;47.780;9.606;2023-05-21T13:34:10;6.03;;;4.03;;
19929;SDS011;10127;47.780;9.606;2023-05-21T13:36:36;5.68;;;4.65;;
19929;SDS011;10127;47.780;9.606;2023-05-21T13:39:02;6.78;;;4.53;;
19929;SDS011;10127;47.780;9.606;2023-05-21T13:41:28;5.70;;;4.30;;
19929;SDS011;10127;47.780;9.606;2023-05-21T13:43:54;5.50;;;4.63;;
19929;SDS011;10127;47.780;9.606;2023-05-21T13:46:19;4.30;;;3.05;;
19929;SDS011;10127;47.780;9.606;2023-05-21T13:48:45;5.55;;;4.57;;
19929;SDS011;10127;47.780;9.606;2023-05-21T13:51:11;6.28;;;4.80;;
19929;SDS011;10127;47.780;9.606;2023-05-21T13:53:36;6.57;;;5.20;;
19929;SDS011;10127;47.780;9.606;2023-05-21T13:56:02;10.75;;;5.78;;
19929;SDS011;10127;47.780;9.606;2023-05-21T13:58:28;11.77;;;5.55;;
19929;SDS011;10127;47.780;9.606;2023-05-21T14:00:58;8.45;;;5.32;;
19929;SDS011;10127;47.780;9.606;2023-05-21T14:03:27;9.55;;;4.95;;
19929;SDS011;10127;47.780;9.606;2023-05-21T14:05:53;6.50;;;4.53;;
19929;SDS011;10127;47.780;9.606;2023-05-21T14:08:19;5.43;;;4.43;;
19929;SDS011;10127;47.780;9.606;2023-05-21T14:10:47;6.75;;;4.35;;
19929;SDS011;10127;47.780;9.606;2023-05-21T14:13:13;7.25;;;5.22;;
19929;SDS011;10127;47.780;9.606;2023-05-21T14:15:40;7.10;;;5.20;;
19929;SDS011;10127;47.780;9.606;2023-05-21T14:18:06;7.00;;;5.10;;
19929;SDS011;10127;47.780;9.606;2023-05-21T14:20:36;7.13;;;5.28;;
19929;SDS011;10127;47.780;9.606;2023-05-21T14:23:02;4.97;;;3.92;;
19929;SDS011;10127;47.780;9.606;2023-05-21T14:25:27;5.72;;;4.70;;
19929;SDS011;10127;47.780;9.606;2023-05-21T14:27:53;7.55;;;4.85;;
19929;SDS011;10127;47.780;9.606;2023-05-21T14:30:18;9.57;;;4.55;;
19929;SDS011;10127;47.780;9.606;2023-05-21T14:32:44;7.18;;;4.90;;
19929;SDS011;10127;47.780;9.606;2023-05-21T14:35:10;6.53;;;4.88;;
19929;SDS011;10127;47.780;9.606;2023-05-21T14:37:35;8.05;;;4.50;;
19929;SDS011;10127;47.780;9.606;2023-05-21T14:40:01;8.45;;;4.63;;
19929;SDS011;10127;47.780;9.606;2023-05-21T14:42:29;6.53;;;4.10;;
19929;SDS011;10127;47.780;9.606;2023-05-21T14:44:55;4.75;;;3.65;;
19929;SDS011;10127;47.780;9.606;2023-05-21T14:47:27;5.68;;;4.03;;
19929;SDS011;10127;47.780;9.606;2023-05-21T14:49:52;5.65;;;3.65;;
19929;SDS011;10127;47.780;9.606;2023-05-21T14:52:18;4.93;;;2.83;;
19929;SDS011;10127;47.780;9.606;2023-05-21T14:54:43;3.40;;;3.10;;
19929;SDS011;10127;47.780;9.606;2023-05-21T14:57:09;6.10;;;3.45;;
19929;SDS011;10127;47.780;9.606;2023-05-21T14:59:35;6.15;;;3.15;;
19929;SDS011;10127;47.780;9.606;2023-05-21T15:02:00;5.40;;;3.72;;
19929;SDS011;10127;47.780;9.606;2023-05-21T15:04:26;5.25;;;2.95;;
19929;SDS011;10127;47.780;9.606;2023-05-21T15:06:51;6.50;;;3.78;;
19929;SDS011;10127;47.780;9.606;2023-05-21T15:09:17;4.07;;;3.00;;
19929;SDS011;10127;47.780;9.606;2023-05-21T15:11:42;4.15;;;2.97;;
19929;SDS011;10127;47.780;9.606;2023-05-21T15:14:09;3.28;;;2.80;;
19929;SDS011;10127;47.780;9.606;2023-05-21T15:16:36;6.47;;;3.10;;
19929;SDS011;10127;47.780;9.606;2023-05-21T15:19:01;5.47;;;3.17;;
19929;SDS011;10127;47.780;9.606;2023-05-21T15:21:27;6.35;;;3.38;;